sensor_id;sensor_type;location;lat;lon;timestamp;temperature;humidity
43089;DHT22;28709;52.030;5.652;2023-03-23T00:02:29;11.70;99.90
43089;DHT22;28709;52.030;5.652;2023-03-23T00:04:58;11.70;99.90
43089;DHT22;28709;52.030;5.652;2023-03-23T00:07:25;11.70;99.90
43089;DHT22;28709;52.030;5.652;2023-03-23T00:09:53;11.70;99.90
43089;DHT22;28709;52.030;5.652;2023-03-23T00:12:23;11.70;99.90
43089;DHT22;28709;52.030;5.652;2023-03-23T00:15:04;11.70;99.90
43089;DHT22;28709;52.030;5.652;2023-03-23T00:17:30;11.70;99.90
43089;DHT22;28709;52.030;5.652;2023-03-23T00:19:58;11.70;99.90
43089;DHT22;28709;52.030;5.652;2023-03-23T00:22:27;11.70;99.90
43089;DHT22;28709;52.030;5.652;2023-03-23T00:24:54;11.70;99.90
43089;DHT22;28709;52.030;5.652;2023-03-23T00:27:20;11.70;99.90
43089;DHT22;28709;52.030;5.652;2023-03-23T00:29:50;11.80;99.90
43089;DHT22;28709;52.030;5.652;2023-03-23T00:32:23;11.80;99.90
43089;DHT22;28709;52.030;5.652;2023-03-23T00:34:56;11.70;99.90
43089;DHT22;28709;52.030;5.652;2023-03-23T00:37:25;11.70;99.90
43089;DHT22;28709;52.030;5.652;2023-03-23T00:39:50;11.60;99.90
43089;DHT22;28709;52.030;5.652;2023-03-23T00:42:17;11.60;99.90
43089;DHT22;28709;52.030;5.652;2023-03-23T00:44:42;11.50;99.90
43089;DHT22;28709;52.030;5.652;2023-03-23T00:47:11;11.40;99.90
43089;DHT22;28709;52.030;5.652;2023-03-23T00:49:38;11.40;99.90
43089;DHT22;28709;52.030;5.652;2023-03-23T00:52:05;11.40;99.90
43089;DHT22;28709;52.030;5.652;2023-03-23T00:54:31;11.30;99.90
43089;DHT22;28709;52.030;5.652;2023-03-23T00:56:58;11.30;99.90
43089;DHT22;28709;52.030;5.652;2023-03-23T00:59:24;11.30;99.90
43089;DHT22;28709;52.030;5.652;2023-03-23T01:01:50;11.30;99.90
43089;DHT22;28709;52.030;5.652;2023-03-23T01:04:16;11.40;99.90
43089;DHT22;28709;52.030;5.652;2023-03-23T01:06:43;11.40;99.90
43089;DHT22;28709;52.030;5.652;2023-03-23T01:09:13;11.50;99.90
43089;DHT22;28709;52.030;5.652;2023-03-23T01:30:41;11.60;99.90
43089;DHT22;28709;52.030;5.652;2023-03-23T01:33:08;11.60;99.90
43089;DHT22;28709;52.030;5.652;2023-03-23T01:35:37;11.70;99.90
43089;DHT22;28709;52.030;5.652;2023-03-23T01:38:03;11.60;99.90
43089;DHT22;28709;52.030;5.652;2023-03-23T01:40:28;11.70;99.90
43089;DHT22;28709;52.030;5.652;2023-03-23T01:42:54;11.70;99.90
43089;DHT22;28709;52.030;5.652;2023-03-23T01:47:56;11.70;99.90
43089;DHT22;28709;52.030;5.652;2023-03-23T01:50:24;11.80;99.90
43089;DHT22;28709;52.030;5.652;2023-03-23T01:52:53;11.80;99.90
43089;DHT22;28709;52.030;5.652;2023-03-23T01:55:21;11.80;99.90
43089;DHT22;28709;52.030;5.652;2023-03-23T01:57:47;11.80;99.90
43089;DHT22;28709;52.030;5.652;2023-03-23T02:00:14;11.80;99.90
43089;DHT22;28709;52.030;5.652;2023-03-23T02:02:43;11.80;99.90
43089;DHT22;28709;52.030;5.652;2023-03-23T02:05:16;11.80;99.90
43089;DHT22;28709;52.030;5.652;2023-03-23T02:07:45;11.80;99.90
43089;DHT22;28709;52.030;5.652;2023-03-23T02:10:12;11.80;99.90
43089;DHT22;28709;52.030;5.652;2023-03-23T02:12:38;11.80;99.90
43089;DHT22;28709;52.030;5.652;2023-03-23T02:15:04;11.80;99.90
43089;DHT22;28709;52.030;5.652;2023-03-23T02:20:28;11.80;99.90
43089;DHT22;28709;52.030;5.652;2023-03-23T02:34:18;11.90;99.90
43089;DHT22;28709;52.030;5.652;2023-03-23T02:36:50;12.00;99.90
43089;DHT22;28709;52.030;5.652;2023-03-23T02:39:25;12.00;99.90
43089;DHT22;28709;52.030;5.652;2023-03-23T02:42:00;12.00;99.90
43089;DHT22;28709;52.030;5.652;2023-03-23T02:44:28;12.00;99.90
43089;DHT22;28709;52.030;5.652;2023-03-23T02:46:56;12.00;99.90
43089;DHT22;28709;52.030;5.652;2023-03-23T02:49:24;12.10;99.90
43089;DHT22;28709;52.030;5.652;2023-03-23T02:51:51;12.10;99.90
43089;DHT22;28709;52.030;5.652;2023-03-23T02:54:20;12.10;99.90
43089;DHT22;28709;52.030;5.652;2023-03-23T02:56:48;12.10;99.90
43089;DHT22;28709;52.030;5.652;2023-03-23T02:59:16;12.10;99.90
43089;DHT22;28709;52.030;5.652;2023-03-23T03:04:13;12.20;99.90
43089;DHT22;28709;52.030;5.652;2023-03-23T03:12:24;12.20;99.90
43089;DHT22;28709;52.030;5.652;2023-03-23T03:17:36;12.20;99.90
43089;DHT22;28709;52.030;5.652;2023-03-23T03:20:07;12.30;99.90
43089;DHT22;28709;52.030;5.652;2023-03-23T03:22:38;12.30;99.90
43089;DHT22;28709;52.030;5.652;2023-03-23T03:25:08;12.30;99.90
43089;DHT22;28709;52.030;5.652;2023-03-23T03:27:34;12.30;99.90
43089;DHT22;28709;52.030;5.652;2023-03-23T03:30:03;12.30;99.90
43089;DHT22;28709;52.030;5.652;2023-03-23T03:32:36;12.30;99.90
43089;DHT22;28709;52.030;5.652;2023-03-23T03:35:04;12.40;99.90
43089;DHT22;28709;52.030;5.652;2023-03-23T03:37:38;12.40;99.90
43089;DHT22;28709;52.030;5.652;2023-03-23T03:40:09;12.40;99.90
43089;DHT22;28709;52.030;5.652;2023-03-23T03:42:41;12.40;99.90
43089;DHT22;28709;52.030;5.652;2023-03-23T03:45:16;12.50;99.90
43089;DHT22;28709;52.030;5.652;2023-03-23T03:47:42;12.50;99.90
43089;DHT22;28709;52.030;5.652;2023-03-23T03:50:08;12.50;99.90
43089;DHT22;28709;52.030;5.652;2023-03-23T03:52:35;12.40;99.90
43089;DHT22;28709;52.030;5.652;2023-03-23T03:55:01;12.50;99.90
43089;DHT22;28709;52.030;5.652;2023-03-23T03:57:27;12.50;99.90
43089;DHT22;28709;52.030;5.652;2023-03-23T03:59:52;12.50;99.90
43089;DHT22;28709;52.030;5.652;2023-03-23T04:02:18;12.50;99.90
43089;DHT22;28709;52.030;5.652;2023-03-23T04:04:49;12.60;99.90
43089;DHT22;28709;52.030;5.652;2023-03-23T04:07:15;12.50;99.90
43089;DHT22;28709;52.030;5.652;2023-03-23T04:09:42;12.60;99.90
43089;DHT22;28709;52.030;5.652;2023-03-23T04:12:09;12.60;99.90
43089;DHT22;28709;52.030;5.652;2023-03-23T04:14:34;12.60;99.90
43089;DHT22;28709;52.030;5.652;2023-03-23T04:17:00;12.60;99.90
43089;DHT22;28709;52.030;5.652;2023-03-23T04:19:26;12.60;99.90
43089;DHT22;28709;52.030;5.652;2023-03-23T04:21:54;12.60;99.90
43089;DHT22;28709;52.030;5.652;2023-03-23T04:24:20;12.60;99.90
43089;DHT22;28709;52.030;5.652;2023-03-23T04:26:47;12.60;99.90
43089;DHT22;28709;52.030;5.652;2023-03-23T04:29:12;12.60;99.90
43089;DHT22;28709;52.030;5.652;2023-03-23T04:31:38;12.60;99.90
43089;DHT22;28709;52.030;5.652;2023-03-23T04:34:05;12.70;99.90
43089;DHT22;28709;52.030;5.652;2023-03-23T04:36:31;12.70;99.90
43089;DHT22;28709;52.030;5.652;2023-03-23T04:38:59;12.70;99.90
43089;DHT22;28709;52.030;5.652;2023-03-23T04:41:25;12.70;99.90
43089;DHT22;28709;52.030;5.652;2023-03-23T04:43:51;12.70;99.90
43089;DHT22;28709;52.030;5.652;2023-03-23T04:46:19;12.70;99.90
43089;DHT22;28709;52.030;5.652;2023-03-23T04:48:46;12.70;99.90
43089;DHT22;28709;52.030;5.652;2023-03-23T04:51:12;12.70;99.90
43089;DHT22;28709;52.030;5.652;2023-03-23T04:53:38;12.70;99.90
43089;DHT22;28709;52.030;5.652;2023-03-23T04:56:04;12.70;99.90
43089;DHT22;28709;52.030;5.652;2023-03-23T04:58:30;12.70;99.90
43089;DHT22;28709;52.030;5.652;2023-03-23T05:01:00;12.70;99.90
43089;DHT22;28709;52.030;5.652;2023-03-23T05:03:26;12.70;99.90
43089;DHT22;28709;52.030;5.652;2023-03-23T05:05:54;12.70;99.90
43089;DHT22;28709;52.030;5.652;2023-03-23T05:08:21;12.70;99.90
43089;DHT22;28709;52.030;5.652;2023-03-23T05:10:54;12.70;99.90
43089;DHT22;28709;52.030;5.652;2023-03-23T05:13:21;12.60;99.90
43089;DHT22;28709;52.030;5.652;2023-03-23T05:15:47;12.60;99.90
43089;DHT22;28709;52.030;5.652;2023-03-23T05:18:14;12.60;99.90
43089;DHT22;28709;52.030;5.652;2023-03-23T05:20:40;12.70;99.90
43089;DHT22;28709;52.030;5.652;2023-03-23T05:23:08;12.60;99.90
43089;DHT22;28709;52.030;5.652;2023-03-23T05:25:34;12.60;99.90
43089;DHT22;28709;52.030;5.652;2023-03-23T05:28:05;12.50;99.90
43089;DHT22;28709;52.030;5.652;2023-03-23T05:30:30;12.40;99.90
43089;DHT22;28709;52.030;5.652;2023-03-23T05:32:56;12.20;99.90
43089;DHT22;28709;52.030;5.652;2023-03-23T05:35:22;12.10;99.90
43089;DHT22;28709;52.030;5.652;2023-03-23T05:37:48;12.00;99.90
43089;DHT22;28709;52.030;5.652;2023-03-23T05:40:13;12.00;99.90
43089;DHT22;28709;52.030;5.652;2023-03-23T05:42:40;12.00;99.90
43089;DHT22;28709;52.030;5.652;2023-03-23T05:45:07;11.90;99.90
43089;DHT22;28709;52.030;5.652;2023-03-23T05:47:34;11.90;99.90
43089;DHT22;28709;52.030;5.652;2023-03-23T05:50:00;11.90;99.90
43089;DHT22;28709;52.030;5.652;2023-03-23T05:52:26;12.00;99.90
43089;DHT22;28709;52.030;5.652;2023-03-23T05:54:52;12.00;99.90
43089;DHT22;28709;52.030;5.652;2023-03-23T05:57:19;12.00;99.90
43089;DHT22;28709;52.030;5.652;2023-03-23T05:59:47;12.00;99.90
43089;DHT22;28709;52.030;5.652;2023-03-23T06:02:13;12.10;99.90
43089;DHT22;28709;52.030;5.652;2023-03-23T06:04:40;12.20;99.90
43089;DHT22;28709;52.030;5.652;2023-03-23T06:07:06;12.20;99.90
43089;DHT22;28709;52.030;5.652;2023-03-23T06:09:32;12.20;99.90
43089;DHT22;28709;52.030;5.652;2023-03-23T06:11:58;12.30;99.90
43089;DHT22;28709;52.030;5.652;2023-03-23T06:14:23;12.30;99.90
43089;DHT22;28709;52.030;5.652;2023-03-23T06:16:49;12.30;99.90
43089;DHT22;28709;52.030;5.652;2023-03-23T06:19:15;12.30;99.90
43089;DHT22;28709;52.030;5.652;2023-03-23T06:21:42;12.40;99.90
43089;DHT22;28709;52.030;5.652;2023-03-23T06:24:08;12.40;99.90
43089;DHT22;28709;52.030;5.652;2023-03-23T06:26:37;12.40;99.90
43089;DHT22;28709;52.030;5.652;2023-03-23T06:29:04;12.40;99.90
43089;DHT22;28709;52.030;5.652;2023-03-23T06:31:39;12.40;99.90
43089;DHT22;28709;52.030;5.652;2023-03-23T06:34:06;12.50;99.90
43089;DHT22;28709;52.030;5.652;2023-03-23T06:36:32;12.50;99.90
43089;DHT22;28709;52.030;5.652;2023-03-23T06:38:58;12.50;99.90
43089;DHT22;28709;52.030;5.652;2023-03-23T06:41:23;12.50;99.90
43089;DHT22;28709;52.030;5.652;2023-03-23T06:43:49;12.50;99.90
43089;DHT22;28709;52.030;5.652;2023-03-23T06:46:15;12.50;99.90
43089;DHT22;28709;52.030;5.652;2023-03-23T06:48:40;12.50;99.90
43089;DHT22;28709;52.030;5.652;2023-03-23T06:51:06;12.50;99.90
43089;DHT22;28709;52.030;5.652;2023-03-23T06:53:32;12.50;99.90
43089;DHT22;28709;52.030;5.652;2023-03-23T06:55:59;12.50;99.90
43089;DHT22;28709;52.030;5.652;2023-03-23T06:58:25;12.50;99.90
43089;DHT22;28709;52.030;5.652;2023-03-23T07:00:57;12.50;99.90
43089;DHT22;28709;52.030;5.652;2023-03-23T07:03:23;12.50;99.90
43089;DHT22;28709;52.030;5.652;2023-03-23T07:05:49;12.50;99.90
43089;DHT22;28709;52.030;5.652;2023-03-23T07:08:15;12.60;99.90
43089;DHT22;28709;52.030;5.652;2023-03-23T07:10:41;12.60;99.90
43089;DHT22;28709;52.030;5.652;2023-03-23T07:13:07;12.60;99.90
43089;DHT22;28709;52.030;5.652;2023-03-23T07:15:33;12.60;99.90
43089;DHT22;28709;52.030;5.652;2023-03-23T07:17:58;12.60;99.90
43089;DHT22;28709;52.030;5.652;2023-03-23T07:20:24;12.60;99.90
43089;DHT22;28709;52.030;5.652;2023-03-23T07:22:50;12.70;99.90
43089;DHT22;28709;52.030;5.652;2023-03-23T07:25:17;12.70;99.90
43089;DHT22;28709;52.030;5.652;2023-03-23T07:27:44;12.70;99.90
43089;DHT22;28709;52.030;5.652;2023-03-23T07:30:11;12.80;99.90
43089;DHT22;28709;52.030;5.652;2023-03-23T07:32:37;12.80;99.90
43089;DHT22;28709;52.030;5.652;2023-03-23T07:35:03;12.80;99.90
43089;DHT22;28709;52.030;5.652;2023-03-23T07:37:29;12.80;99.90
43089;DHT22;28709;52.030;5.652;2023-03-23T07:39:55;12.70;99.90
43089;DHT22;28709;52.030;5.652;2023-03-23T07:42:20;12.70;99.90
43089;DHT22;28709;52.030;5.652;2023-03-23T07:44:46;12.70;99.90
43089;DHT22;28709;52.030;5.652;2023-03-23T07:47:12;12.60;99.90
43089;DHT22;28709;52.030;5.652;2023-03-23T07:49:38;12.60;99.90
43089;DHT22;28709;52.030;5.652;2023-03-23T07:52:05;12.60;99.90
43089;DHT22;28709;52.030;5.652;2023-03-23T07:54:31;12.60;99.90
43089;DHT22;28709;52.030;5.652;2023-03-23T07:56:57;12.60;99.90
43089;DHT22;28709;52.030;5.652;2023-03-23T07:59:22;12.60;99.90
43089;DHT22;28709;52.030;5.652;2023-03-23T08:01:48;12.50;99.90
43089;DHT22;28709;52.030;5.652;2023-03-23T08:04:14;12.50;99.90
43089;DHT22;28709;52.030;5.652;2023-03-23T08:06:40;12.40;99.90
43089;DHT22;28709;52.030;5.652;2023-03-23T08:09:07;12.30;99.90
43089;DHT22;28709;52.030;5.652;2023-03-23T08:11:37;12.10;99.90
43089;DHT22;28709;52.030;5.652;2023-03-23T08:14:04;12.00;99.90
43089;DHT22;28709;52.030;5.652;2023-03-23T08:16:31;11.80;99.90
43089;DHT22;28709;52.030;5.652;2023-03-23T08:18:57;11.70;99.90
43089;DHT22;28709;52.030;5.652;2023-03-23T08:21:23;11.60;99.90
43089;DHT22;28709;52.030;5.652;2023-03-23T08:23:49;11.60;99.90
43089;DHT22;28709;52.030;5.652;2023-03-23T08:26:14;11.50;99.90
43089;DHT22;28709;52.030;5.652;2023-03-23T08:28:40;11.50;99.90
43089;DHT22;28709;52.030;5.652;2023-03-23T08:31:11;11.50;99.90
43089;DHT22;28709;52.030;5.652;2023-03-23T08:33:38;11.40;99.90
43089;DHT22;28709;52.030;5.652;2023-03-23T08:36:05;11.50;99.90
43089;DHT22;28709;52.030;5.652;2023-03-23T08:38:31;11.50;99.90
43089;DHT22;28709;52.030;5.652;2023-03-23T08:41:02;11.50;99.90
43089;DHT22;28709;52.030;5.652;2023-03-23T08:43:29;11.60;99.90
43089;DHT22;28709;52.030;5.652;2023-03-23T08:45:55;11.60;99.90
43089;DHT22;28709;52.030;5.652;2023-03-23T08:48:21;11.70;99.90
43089;DHT22;28709;52.030;5.652;2023-03-23T08:50:48;11.70;99.90
43089;DHT22;28709;52.030;5.652;2023-03-23T08:53:15;11.70;99.90
43089;DHT22;28709;52.030;5.652;2023-03-23T08:55:41;11.70;99.90
43089;DHT22;28709;52.030;5.652;2023-03-23T08:58:08;11.70;99.90
43089;DHT22;28709;52.030;5.652;2023-03-23T09:00:34;11.80;99.90
43089;DHT22;28709;52.030;5.652;2023-03-23T09:03:00;11.90;99.90
43089;DHT22;28709;52.030;5.652;2023-03-23T09:05:27;11.90;99.90
43089;DHT22;28709;52.030;5.652;2023-03-23T09:07:56;12.00;99.90
43089;DHT22;28709;52.030;5.652;2023-03-23T09:10:25;12.10;99.90
43089;DHT22;28709;52.030;5.652;2023-03-23T09:12:52;12.20;99.90
43089;DHT22;28709;52.030;5.652;2023-03-23T09:15:18;12.30;99.90
43089;DHT22;28709;52.030;5.652;2023-03-23T09:17:48;12.50;99.90
43089;DHT22;28709;52.030;5.652;2023-03-23T09:20:17;12.60;99.90
43089;DHT22;28709;52.030;5.652;2023-03-23T09:22:47;12.90;99.90
43089;DHT22;28709;52.030;5.652;2023-03-23T09:25:15;13.10;99.90
43089;DHT22;28709;52.030;5.652;2023-03-23T09:27:45;13.50;99.90
43089;DHT22;28709;52.030;5.652;2023-03-23T09:30:13;14.00;99.90
43089;DHT22;28709;52.030;5.652;2023-03-23T09:32:39;14.50;99.90
43089;DHT22;28709;52.030;5.652;2023-03-23T09:35:07;14.60;99.90
43089;DHT22;28709;52.030;5.652;2023-03-23T09:37:39;14.50;99.90
43089;DHT22;28709;52.030;5.652;2023-03-23T09:40:09;14.30;99.90
43089;DHT22;28709;52.030;5.652;2023-03-23T09:42:55;14.20;99.90
43089;DHT22;28709;52.030;5.652;2023-03-23T09:48:46;14.30;99.90
43089;DHT22;28709;52.030;5.652;2023-03-23T09:54:38;15.30;99.90
43089;DHT22;28709;52.030;5.652;2023-03-23T09:57:15;15.70;99.90
43089;DHT22;28709;52.030;5.652;2023-03-23T09:59:53;15.60;99.90
43089;DHT22;28709;52.030;5.652;2023-03-23T10:02:32;15.30;99.90
43089;DHT22;28709;52.030;5.652;2023-03-23T10:05:30;14.80;99.90
43089;DHT22;28709;52.030;5.652;2023-03-23T10:07:58;14.70;99.90
43089;DHT22;28709;52.030;5.652;2023-03-23T10:10:31;14.90;99.90
43089;DHT22;28709;52.030;5.652;2023-03-23T10:16:13;15.60;99.90
43089;DHT22;28709;52.030;5.652;2023-03-23T10:21:29;15.40;99.90
43089;DHT22;28709;52.030;5.652;2023-03-23T10:24:00;16.00;99.90
43089;DHT22;28709;52.030;5.652;2023-03-23T10:28:59;17.40;99.90
43089;DHT22;28709;52.030;5.652;2023-03-23T10:31:35;17.80;99.90
43089;DHT22;28709;52.030;5.652;2023-03-23T10:34:08;18.00;99.90
43089;DHT22;28709;52.030;5.652;2023-03-23T10:36:48;17.90;99.90
43089;DHT22;28709;52.030;5.652;2023-03-23T10:39:20;17.70;99.90
43089;DHT22;28709;52.030;5.652;2023-03-23T10:41:47;16.90;99.90
43089;DHT22;28709;52.030;5.652;2023-03-23T10:44:22;16.60;99.90
43089;DHT22;28709;52.030;5.652;2023-03-23T10:47:03;16.70;99.90
43089;DHT22;28709;52.030;5.652;2023-03-23T10:49:50;17.00;99.90
43089;DHT22;28709;52.030;5.652;2023-03-23T10:52:36;16.80;99.90
43089;DHT22;28709;52.030;5.652;2023-03-23T10:55:12;16.50;99.90
43089;DHT22;28709;52.030;5.652;2023-03-23T10:57:41;16.80;99.90
43089;DHT22;28709;52.030;5.652;2023-03-23T11:00:19;17.30;99.90
43089;DHT22;28709;52.030;5.652;2023-03-23T11:02:48;17.90;99.90
43089;DHT22;28709;52.030;5.652;2023-03-23T11:05:26;18.40;99.90
43089;DHT22;28709;52.030;5.652;2023-03-23T11:07:57;18.60;99.90
43089;DHT22;28709;52.030;5.652;2023-03-23T11:13:00;18.60;99.90
43089;DHT22;28709;52.030;5.652;2023-03-23T11:15:34;18.70;99.90
43089;DHT22;28709;52.030;5.652;2023-03-23T11:18:04;18.60;99.90
43089;DHT22;28709;52.030;5.652;2023-03-23T11:20:35;18.00;99.90
43089;DHT22;28709;52.030;5.652;2023-03-23T11:23:21;17.20;99.90
43089;DHT22;28709;52.030;5.652;2023-03-23T11:25:57;16.60;99.90
43089;DHT22;28709;52.030;5.652;2023-03-23T11:28:34;16.20;99.90
43089;DHT22;28709;52.030;5.652;2023-03-23T11:31:03;15.90;99.90
43089;DHT22;28709;52.030;5.652;2023-03-23T11:33:38;15.60;99.90
43089;DHT22;28709;52.030;5.652;2023-03-23T11:36:06;15.60;99.90
43089;DHT22;28709;52.030;5.652;2023-03-23T11:38:34;16.40;99.90
43089;DHT22;28709;52.030;5.652;2023-03-23T11:41:00;17.40;99.90
43089;DHT22;28709;52.030;5.652;2023-03-23T11:43:26;18.00;99.90
43089;DHT22;28709;52.030;5.652;2023-03-23T11:46:14;18.10;99.90
43089;DHT22;28709;52.030;5.652;2023-03-23T11:48:59;17.80;99.90
43089;DHT22;28709;52.030;5.652;2023-03-23T11:51:46;17.50;99.90
43089;DHT22;28709;52.030;5.652;2023-03-23T11:54:26;17.00;99.90
43089;DHT22;28709;52.030;5.652;2023-03-23T11:56:54;17.10;99.90
43089;DHT22;28709;52.030;5.652;2023-03-23T11:59:33;17.50;99.90
43089;DHT22;28709;52.030;5.652;2023-03-23T12:02:31;17.80;99.90
43089;DHT22;28709;52.030;5.652;2023-03-23T12:13:38;16.50;99.90
43089;DHT22;28709;52.030;5.652;2023-03-23T12:30:24;14.20;99.90
43089;DHT22;28709;52.030;5.652;2023-03-23T12:33:02;14.10;99.90
43089;DHT22;28709;52.030;5.652;2023-03-23T12:35:44;14.00;99.90
43089;DHT22;28709;52.030;5.652;2023-03-23T12:41:15;14.10;99.90
43089;DHT22;28709;52.030;5.652;2023-03-23T12:46:41;14.20;99.90
43089;DHT22;28709;52.030;5.652;2023-03-23T12:54:59;14.20;99.90
43089;DHT22;28709;52.030;5.652;2023-03-23T12:57:43;14.30;99.90
43089;DHT22;28709;52.030;5.652;2023-03-23T13:05:50;14.40;99.90
43089;DHT22;28709;52.030;5.652;2023-03-23T13:08:45;14.60;99.90
43089;DHT22;28709;52.030;5.652;2023-03-23T13:11:19;14.70;99.90
43089;DHT22;28709;52.030;5.652;2023-03-23T13:13:54;14.70;99.90
43089;DHT22;28709;52.030;5.652;2023-03-23T13:22:21;17.40;99.90
43089;DHT22;28709;52.030;5.652;2023-03-23T13:24:57;17.80;99.90
43089;DHT22;28709;52.030;5.652;2023-03-23T13:27:26;18.30;99.90
43089;DHT22;28709;52.030;5.652;2023-03-23T13:29:58;18.10;99.90
43089;DHT22;28709;52.030;5.652;2023-03-23T13:32:36;18.10;99.90
43089;DHT22;28709;52.030;5.652;2023-03-23T13:35:04;18.30;99.90
43089;DHT22;28709;52.030;5.652;2023-03-23T13:37:32;18.70;99.90
43089;DHT22;28709;52.030;5.652;2023-03-23T13:40:23;19.10;99.90
43089;DHT22;28709;52.030;5.652;2023-03-23T13:42:55;19.40;99.90
43089;DHT22;28709;52.030;5.652;2023-03-23T13:47:48;18.40;99.90
43089;DHT22;28709;52.030;5.652;2023-03-23T13:55:38;16.60;99.90
43089;DHT22;28709;52.030;5.652;2023-03-23T14:03:10;15.70;99.90
43089;DHT22;28709;52.030;5.652;2023-03-23T14:05:40;15.50;99.90
43089;DHT22;28709;52.030;5.652;2023-03-23T14:08:14;15.20;99.90
43089;DHT22;28709;52.030;5.652;2023-03-23T14:10:49;14.70;99.90
43089;DHT22;28709;52.030;5.652;2023-03-23T14:16:01;14.50;99.90
43089;DHT22;28709;52.030;5.652;2023-03-23T14:18:39;14.60;99.90
43089;DHT22;28709;52.030;5.652;2023-03-23T14:21:06;14.70;99.90
43089;DHT22;28709;52.030;5.652;2023-03-23T14:23:39;14.90;99.90
43089;DHT22;28709;52.030;5.652;2023-03-23T14:26:11;15.00;99.90
43089;DHT22;28709;52.030;5.652;2023-03-23T14:28:45;15.20;99.90
43089;DHT22;28709;52.030;5.652;2023-03-23T14:31:31;15.30;99.90
43089;DHT22;28709;52.030;5.652;2023-03-23T14:34:03;15.50;99.90
43089;DHT22;28709;52.030;5.652;2023-03-23T14:36:31;15.50;99.90
43089;DHT22;28709;52.030;5.652;2023-03-23T14:39:02;15.50;99.90
43089;DHT22;28709;52.030;5.652;2023-03-23T14:41:30;15.50;99.90
43089;DHT22;28709;52.030;5.652;2023-03-23T14:43:56;15.60;99.90
43089;DHT22;28709;52.030;5.652;2023-03-23T14:46:24;15.60;99.90
43089;DHT22;28709;52.030;5.652;2023-03-23T14:48:50;15.70;99.90
43089;DHT22;28709;52.030;5.652;2023-03-23T14:51:20;15.70;99.90
43089;DHT22;28709;52.030;5.652;2023-03-23T14:53:47;15.80;99.90
43089;DHT22;28709;52.030;5.652;2023-03-23T14:56:19;15.80;99.90
43089;DHT22;28709;52.030;5.652;2023-03-23T14:58:50;15.70;99.90
43089;DHT22;28709;52.030;5.652;2023-03-23T15:01:27;15.60;99.90
43089;DHT22;28709;52.030;5.652;2023-03-23T15:04:09;15.50;99.90
43089;DHT22;28709;52.030;5.652;2023-03-23T15:06:37;15.40;99.90
43089;DHT22;28709;52.030;5.652;2023-03-23T15:09:10;15.40;99.90
43089;DHT22;28709;52.030;5.652;2023-03-23T15:11:39;15.30;99.90
43089;DHT22;28709;52.030;5.652;2023-03-23T15:14:17;15.30;99.90
43089;DHT22;28709;52.030;5.652;2023-03-23T15:16:47;15.40;99.90
43089;DHT22;28709;52.030;5.652;2023-03-23T15:19:21;15.40;99.90
43089;DHT22;28709;52.030;5.652;2023-03-23T15:26:52;15.50;99.90
43089;DHT22;28709;52.030;5.652;2023-03-23T15:29:20;15.60;99.90
43089;DHT22;28709;52.030;5.652;2023-03-23T15:31:57;15.60;99.90
43089;DHT22;28709;52.030;5.652;2023-03-23T15:34:35;15.60;99.90
43089;DHT22;28709;52.030;5.652;2023-03-23T15:37:26;15.60;99.90
43089;DHT22;28709;52.030;5.652;2023-03-23T15:39:52;15.50;99.90
43089;DHT22;28709;52.030;5.652;2023-03-23T15:42:33;15.50;99.90
43089;DHT22;28709;52.030;5.652;2023-03-23T15:47:48;15.40;99.90
43089;DHT22;28709;52.030;5.652;2023-03-23T15:50:16;15.40;99.90
43089;DHT22;28709;52.030;5.652;2023-03-23T15:52:42;15.50;99.90
43089;DHT22;28709;52.030;5.652;2023-03-23T15:57:50;15.60;99.90
43089;DHT22;28709;52.030;5.652;2023-03-23T16:00:17;15.60;99.90
43089;DHT22;28709;52.030;5.652;2023-03-23T16:02:45;15.50;99.90
43089;DHT22;28709;52.030;5.652;2023-03-23T16:05:12;15.50;99.90
43089;DHT22;28709;52.030;5.652;2023-03-23T16:07:38;15.40;99.90
43089;DHT22;28709;52.030;5.652;2023-03-23T16:10:05;15.50;99.90
43089;DHT22;28709;52.030;5.652;2023-03-23T16:12:31;15.50;99.90
43089;DHT22;28709;52.030;5.652;2023-03-23T16:14:58;15.50;99.90
43089;DHT22;28709;52.030;5.652;2023-03-23T16:17:25;15.60;99.90
43089;DHT22;28709;52.030;5.652;2023-03-23T16:19:50;15.60;99.90
43089;DHT22;28709;52.030;5.652;2023-03-23T16:22:16;15.60;99.90
43089;DHT22;28709;52.030;5.652;2023-03-23T16:24:42;15.60;99.90
43089;DHT22;28709;52.030;5.652;2023-03-23T16:27:11;15.60;99.90
43089;DHT22;28709;52.030;5.652;2023-03-23T16:29:37;15.60;99.90
43089;DHT22;28709;52.030;5.652;2023-03-23T16:32:03;15.60;99.90
43089;DHT22;28709;52.030;5.652;2023-03-23T16:34:28;15.50;99.90
43089;DHT22;28709;52.030;5.652;2023-03-23T16:36:58;15.40;99.90
43089;DHT22;28709;52.030;5.652;2023-03-23T16:39:23;15.30;99.90
43089;DHT22;28709;52.030;5.652;2023-03-23T16:41:49;15.30;99.90
43089;DHT22;28709;52.030;5.652;2023-03-23T16:44:15;15.20;99.90
43089;DHT22;28709;52.030;5.652;2023-03-23T16:46:41;15.10;99.90
43089;DHT22;28709;52.030;5.652;2023-03-23T16:49:06;15.10;99.90
43089;DHT22;28709;52.030;5.652;2023-03-23T16:51:32;15.00;99.90
43089;DHT22;28709;52.030;5.652;2023-03-23T16:53:58;15.00;99.90
43089;DHT22;28709;52.030;5.652;2023-03-23T16:56:24;15.00;99.90
43089;DHT22;28709;52.030;5.652;2023-03-23T16:58:49;15.00;99.90
43089;DHT22;28709;52.030;5.652;2023-03-23T17:01:15;15.00;99.90
43089;DHT22;28709;52.030;5.652;2023-03-23T17:03:41;14.90;99.90
43089;DHT22;28709;52.030;5.652;2023-03-23T17:06:07;14.90;99.90
43089;DHT22;28709;52.030;5.652;2023-03-23T17:08:33;14.90;99.90
43089;DHT22;28709;52.030;5.652;2023-03-23T17:10:59;14.90;99.90
43089;DHT22;28709;52.030;5.652;2023-03-23T17:13:25;14.90;99.90
43089;DHT22;28709;52.030;5.652;2023-03-23T17:15:53;14.90;99.90
43089;DHT22;28709;52.030;5.652;2023-03-23T17:18:21;14.90;99.90
43089;DHT22;28709;52.030;5.652;2023-03-23T17:20:47;14.90;99.90
43089;DHT22;28709;52.030;5.652;2023-03-23T17:23:13;14.80;99.90
43089;DHT22;28709;52.030;5.652;2023-03-23T17:25:39;14.70;99.90
43089;DHT22;28709;52.030;5.652;2023-03-23T17:28:05;14.70;99.90
43089;DHT22;28709;52.030;5.652;2023-03-23T17:30:31;14.70;99.90
43089;DHT22;28709;52.030;5.652;2023-03-23T17:32:56;14.70;99.90
43089;DHT22;28709;52.030;5.652;2023-03-23T17:35:22;14.60;99.90
43089;DHT22;28709;52.030;5.652;2023-03-23T17:37:47;14.60;99.90
43089;DHT22;28709;52.030;5.652;2023-03-23T17:40:13;14.50;99.90
43089;DHT22;28709;52.030;5.652;2023-03-23T17:42:39;14.50;99.90
43089;DHT22;28709;52.030;5.652;2023-03-23T17:45:07;14.40;99.90
43089;DHT22;28709;52.030;5.652;2023-03-23T17:47:33;14.40;99.90
43089;DHT22;28709;52.030;5.652;2023-03-23T17:49:59;14.30;99.90
43089;DHT22;28709;52.030;5.652;2023-03-23T17:52:25;14.30;99.90
43089;DHT22;28709;52.030;5.652;2023-03-23T17:54:50;14.20;99.90
43089;DHT22;28709;52.030;5.652;2023-03-23T17:57:16;14.20;99.90
43089;DHT22;28709;52.030;5.652;2023-03-23T17:59:42;14.10;99.90